Latest Coastal Weather Observations for Swan Island

IDT60701

Issued at 2:15 pm EDT Sunday 26 October 2014 (issued every 10 minutes, with the page automatically refreshed every 10 minutes)

About coastal observations | Map of coastal stations | Coastal observations for TAS | Marine services | Other Formats
Station Details ID: 092123 Name: SWAN ISLAND Lat: -40.73 Lon: 148.12 Height: 15.0 m
Data from the previous 72 hours. | See also: Recent months at Swan Island
Date/Time
EDT
Temp

°C
Wind Pressure Rain
since 9am
mm
Weather Cloud Vis
km
Sea
Height
m
Swell
Dir
 
Speed
knots
Gust
knots
hPa Trend Height
m
Period
s
Dir
26/02:00pm 17.0 E 8 10 1012.0 - 0.0 - - - - - - -
26/01:30pm 17.6 E 10 12 1012.1 - 0.0 - - - - - - -
26/01:00pm 16.3 ESE 9 11 1012.4 - 0.0 - - - - - - -
26/12:30pm 17.2 SE 9 11 1012.9 - 0.0 - - - - - - -
26/12:00pm 16.4 SE 8 11 1013.0 - 0.0 - - - - - - -
26/11:30am 15.5 ESE 8 11 1012.9 - 0.0 - - - - - - -
26/11:00am 16.2 SE 11 13 1013.1 - 0.0 - - - - - - -
26/10:30am 15.8 SE 12 14 1013.2 - 0.0 - - - - - - -
26/10:00am 15.2 SE 9 12 1013.3 - 0.0 - - - - - - -
26/09:30am 15.2 SE 10 12 1013.4 - 0.0 - - - - - - -
26/09:00am 14.9 SE 9 10 1013.5 - 0.0 - - - - - - -
26/08:30am 14.8 ESE 10 11 1013.2 - 0.0 - - - - - - -
26/08:00am 14.5 SE 8 10 1013.1 - 0.0 - - - - - - -
26/07:30am 14.3 SE 7 8 1013.2 - 0.0 - - - - - - -
26/07:00am 14.2 SE 8 10 1013.0 - 0.0 - - - - - - -
26/06:30am 14.1 SE 7 9 1013.1 - 0.0 - - - - - - -
26/06:00am 14.0 ESE 8 10 1013.0 - 0.0 - - - - - - -
26/05:30am 13.9 ESE 9 10 1012.6 - 0.0 - - - - - - -
26/05:00am 13.9 ESE 8 10 1012.8 - 0.0 - - - - - - -
26/04:30am 13.8 E 7 9 1012.8 - 0.0 - - - - - - -
26/04:00am 13.8 ESE 7 8 1012.8 - 0.0 - - - - - - -
26/03:30am 13.9 ESE 9 11 1013.6 - 0.0 - - - - - - -
26/03:00am 14.0 SE 7 8 1014.3 - 0.0 - - - - - - -
26/02:30am 14.0 SE 6 8 1014.6 - 0.0 - - - - - - -
26/02:00am 14.0 ESE 5 7 1015.1 - 0.0 - - - - - - -
26/01:30am 14.0 ESE 8 9 1015.5 - 0.0 - - - - - - -
26/01:00am 14.1 ESE 6 7 1016.0 - 0.0 - - - - - - -
26/12:30am 14.1 ESE 8 9 1016.1 - 0.0 - - - - - - -
26/12:00am 14.1 E 8 9 1016.2 - 0.0 - - - - - - -
 
Date/Time
EDT
Temp

°C
Wind Pressure Rain
since 9am
mm
Weather Cloud Vis
km
Sea
Height
m
Swell
Dir
 
Speed
knots
Gust
knots
hPa Trend Height
m
Period
s
Dir
25/11:30pm 14.0 E 9 11 1016.1 - 0.0 - - - - - - -
25/11:00pm 14.1 E 10 12 1016.1 - 0.0 - - - - - - -
25/10:30pm 14.2 E 11 13 1016.6 - 0.0 - - - - - - -
25/10:00pm 14.1 E 10 12 1017.0 - 0.0 - - - - - - -
25/09:30pm 14.2 E 10 11 1017.3 - 0.0 - - - - - - -
25/09:00pm 14.2 E 10 12 1017.3 - 0.0 - - - - - - -
25/08:30pm 14.2 E 10 12 1016.9 - 0.0 - - - - - - -
25/08:00pm 14.1 E 10 13 1016.6 - 0.0 - - - - - - -
25/07:30pm 14.3 E 10 11 1016.2 - 0.0 - - - - - - -
25/07:00pm 14.6 E 10 11 1016.2 - 0.0 - - - - - - -
25/06:30pm 14.8 ESE 10 12 1015.9 - 0.0 - - - - - - -
25/06:00pm 15.1 E 10 12 1015.9 - 0.0 - - - - - - -
25/05:30pm 15.3 ESE 10 13 1015.7 - 0.0 - - - - - - -
25/05:00pm 15.7 E 10 12 1015.3 - 0.0 - - - - - - -
25/04:30pm 15.6 E 8 10 1015.6 - 0.0 - - - - - - -
25/04:00pm 15.8 E 9 11 1015.4 - 0.0 - - - - - - -
25/03:30pm 16.5 E 10 12 1015.2 - 0.0 - - - - - - -
25/03:00pm 17.2 ESE 8 10 1015.1 - 0.0 - - - - - - -
25/02:30pm 16.8 ESE 5 7 1015.2 - 0.0 - - - - - - -
25/02:00pm 17.5 ESE 3 5 1015.6 - 0.0 - - - - - - -
25/01:30pm 15.6 NW 4 5 1016.0 - 0.0 - - - - - - -
25/01:00pm 15.6 NNW 4 5 1015.8 - 0.0 - - - - - - -
25/12:30pm 15.8 N 3 5 1015.8 - 0.0 - - - - - - -
25/12:00pm 15.5 NW 6 7 1016.1 - 0.0 - - - - - - -
25/11:30am 15.7 NNW 4 5 1016.0 - 0.0 - - - - - - -
25/11:00am 15.7 NNW 6 7 1015.8 - 0.0 - - - - - - -
25/10:30am 15.9 NW 7 8 1015.5 - 0.0 - - - - - - -
25/10:00am 16.1 NW 6 8 1015.2 - 0.0 - - - - - - -
25/09:30am 16.5 W 8 10 1014.9 - 0.0 - - - - - - -
25/09:00am 16.3 WNW 8 12 1014.8 - 0.0 - - - - - - -
25/08:30am 15.5 WNW 10 14 1014.5 - 0.0 - - - - - - -
25/08:00am 14.7 WNW 9 13 1014.1 - 0.0 - - - - - - -
25/07:30am 14.2 WNW 12 15 1013.7 - 0.0 - - - - - - -
25/07:00am 13.7 WNW 9 13 1013.2 - 0.0 - - - - - - -
25/06:30am 13.4 WNW 10 14 1012.8 - 0.0 - - - - - - -
25/06:00am 13.0 W 7 11 1012.2 - 0.0 - - - - - - -
25/05:30am 13.3 WNW 9 14 1011.6 - 0.0 - - - - - - -
25/05:00am 13.5 WNW 13 20 1010.8 - 0.0 - - - - - - -
25/04:30am 13.4 WNW 11 16 1010.3 - 0.0 - - - - - - -
25/04:00am 13.4 W 13 19 1010.3 - 0.0 - - - - - - -
25/03:30am 13.7 W 11 16 1010.3 - 0.0 - - - - - - -
25/03:00am 13.9 WNW 13 18 1010.1 - 0.0 - - - - - - -
25/02:30am 13.9 W 14 19 1010.4 - 0.0 - - - - - - -
25/02:00am 13.9 WNW 10 16 1010.3 - 0.0 - - - - - - -
25/01:30am 13.9 WNW 14 19 1010.2 - 0.0 - - - - - - -
25/01:00am 13.8 WNW 12 16 1010.2 - 0.0 - - - - - - -
25/12:30am 13.8 WNW 12 16 1010.0 - 0.0 - - - - - - -
25/12:00am 14.1 WNW 10 15 1010.1 - 0.0 - - - - - - -
 
Date/Time
EDT
Temp

°C
Wind Pressure Rain
since 9am
mm
Weather Cloud Vis
km
Sea
Height
m
Swell
Dir
 
Speed
knots
Gust
knots
hPa Trend Height
m
Period
s
Dir
24/11:30pm 14.3 WNW 11 16 1010.0 - 0.0 - - - - - - -
24/11:00pm 14.4 NW 9 12 1010.0 - 0.0 - - - - - - -
24/10:30pm 14.6 NW 9 12 1009.9 - 0.0 - - - - - - -
24/10:00pm 14.8 NW 10 13 1010.2 - 0.0 - - - - - - -
24/09:30pm 15.1 NW 8 11 1010.3 - 0.0 - - - - - - -
24/09:00pm 14.8 N 2 3 1010.0 - 0.0 - - - - - - -
24/08:30pm 14.9 N 1 3 1009.6 - 0.0 - - - - - - -
24/08:00pm 15.4 N 1 3 1009.7 - 0.0 - - - - - - -
24/07:30pm 15.7 N 6 8 1009.5 - 0.0 - - - - - - -
24/07:00pm 15.9 N 3 5 1009.6 - 0.0 - - - - - - -
24/06:30pm 15.9 NE 6 10 1009.2 - 0.0 - - - - - - -
24/06:00pm 15.9 NE 8 9 1009.5 - 0.0 - - - - - - -
24/05:30pm 15.7 ENE 7 8 1010.0 - 0.0 - - - - - - -
24/05:00pm 15.7 ENE 8 9 1010.2 - 0.0 - - - - - - -
24/04:30pm 15.7 E 9 12 1010.3 - 0.0 - - - - - - -
24/04:00pm 15.5 E 11 13 1010.8 - 0.0 - - - - - - -
24/03:30pm 15.3 E 12 14 1011.4 - 0.0 - - - - - - -
24/03:00pm 15.0 E 13 15 1011.9 - 0.0 - - - - - - -
24/02:30pm 15.0 E 9 12 1012.9 - 0.0 - - - - - - -
24/02:00pm 15.1 E 10 12 1013.5 - 0.0 - - - - - - -
24/01:30pm 15.2 E 11 14 1014.1 - 0.0 - - - - - - -
24/01:00pm 15.4 E 15 17 1014.3 - 0.0 - - - - - - -
24/12:30pm 15.4 E 14 16 1014.6 - 0.0 - - - - - - -
24/12:00pm 15.5 E 15 18 1015.2 - 0.0 - - - - - - -
24/11:30am 15.4 E 16 19 1015.9 - 0.0 - - - - - - -
24/11:00am 15.4 E 15 18 1016.3 - 0.0 - - - - - - -
24/10:30am 15.0 E 17 21 1016.6 - 0.0 - - - - - - -
24/10:00am 14.6 E 18 21 1017.1 - 0.0 - - - - - - -
24/09:30am 14.4 E 18 20 1017.6 - 0.0 - - - - - - -
24/09:00am 14.3 E 17 21 1018.2 - 0.0 - - - - - - -
24/08:30am 14.3 E 19 22 1018.5 - 0.0 - - - - - - -
24/08:00am 14.2 E 18 22 1018.8 - 0.0 - - - - - - -
24/07:30am 14.2 E 18 23 1019.1 - 0.0 - - - - - - -
24/07:00am 14.1 E 18 22 1019.1 - 0.0 - - - - - - -
24/06:30am 14.0 E 18 21 1019.2 - 0.0 - - - - - - -
24/06:00am 14.0 E 20 23 1019.4 - 0.0 - - - - - - -
24/05:30am 13.9 E 17 21 1019.7 - 0.0 - - - - - - -
24/05:00am 13.7 E 19 24 1019.9 - 0.0 - - - - - - -
24/04:30am 13.8 E 18 22 1020.3 - 0.0 - - - - - - -
24/04:00am 13.6 E 17 21 1020.8 - 0.0 - - - - - - -
24/03:30am 13.6 E 19 23 1021.1 - 0.0 - - - - - - -
24/03:00am 13.5 E 21 26 1021.2 - 0.0 - - - - - - -
24/02:30am 13.6 ESE 19 23 1021.2 - 0.0 - - - - - - -
24/02:00am 13.6 ESE 19 22 1021.7 - 0.0 - - - - - - -
24/01:30am 13.4 ESE 20 24 1022.1 - 0.0 - - - - - - -
24/01:00am 13.3 ESE 20 24 1022.8 - 0.0 - - - - - - -
24/12:30am 13.1 ESE 21 27 1023.2 - 0.0 - - - - - - -
24/12:00am 13.0 ESE 20 25 1023.5 - 0.0 - - - - - - -
 
Date/Time
EDT
Temp

°C
Wind Pressure Rain
since 9am
mm
Weather Cloud Vis
km
Sea
Height
m
Swell
Dir
 
Speed
knots
Gust
knots
hPa Trend Height
m
Period
s
Dir
23/11:30pm 13.3 ESE 21 26 1024.0 - 0.0 - - - - - - -
23/11:00pm 13.2 ESE 22 27 1024.2 - 0.0 - - - - - - -
23/10:30pm 13.2 ESE 23 27 1024.4 - 0.0 - - - - - - -
23/10:00pm 13.2 ESE 24 28 1024.4 - 0.0 - - - - - - -
23/09:30pm 13.0 ESE 23 28 1024.4 - 0.0 - - - - - - -
23/09:00pm 13.0 ESE 23 28 1024.2 - 0.0 - - - - - - -
23/08:30pm 12.9 ESE 22 26 1024.0 - 0.0 - - - - - - -
23/08:00pm 12.8 ESE 23 28 1023.7 - 0.0 - - - - - - -
23/07:30pm 12.8 ESE 22 30 1023.6 - 0.0 - - - - - - -
23/07:00pm 13.1 SE 22 30 1023.5 - 0.0 - - - - - - -
23/06:30pm 13.1 SE 22 28 1023.3 - 0.0 - - - - - - -
23/06:00pm 13.1 SE 22 29 1023.2 - 0.0 - - - - - - -
23/05:30pm 13.8 SE 22 29 1023.2 - 0.0 - - - - - - -
23/05:00pm 13.7 SE 23 29 1023.0 - 0.0 - - - - - - -
23/04:30pm 14.1 SE 23 30 1023.0 - 0.0 - - - - - - -
23/04:00pm 14.3 SE 23 30 1023.0 - 0.0 - - - - - - -
23/03:30pm 14.7 SE 23 30 1023.0 - 0.0 - - - - - - -
23/03:00pm 14.2 ESE 22 28 1023.0 - 0.0 - - - - - - -
23/02:30pm 14.7 SE 23 30 1023.3 - 0.0 - - - - - - -

Other Formats:

Comma delimited format used in spreadsheet applications
http://www.bom.gov.au/fwo/IDT60701/IDT60701.95985.axf

JavaScript Object Notation format (JSON) in row-major order
http://www.bom.gov.au/fwo/IDT60701/IDT60701.95985.json